Time;durP1;ratioP1;P1;durP2;ratioP2;P2;SDS_P1;SDS_P2;PMS_P1;PMS_P2;Temp;Humidity;BMP_temperature;BMP_pressure;BME280_temperature;BME280_humidity;BME280_pressure;Samples;Min_cycle;Max_cycle;Signal;HPM_P1;HPM_P2
2023/05/01 00:00:58;;;;;;;;;55.75;46.00;;;;;13.14;56.86;99414.03;5070942;28;8861;-82
2023/05/01 00:03:29;;;;;;;;;56.50;46.75;;;;;13.13;56.71;99410.53;5070733;28;9661;-80
2023/05/01 00:06:03;;;;;;;;;55.75;45.75;;;;;13.12;56.88;99417.56;5070960;28;8846;-80
2023/05/01 00:08:32;;;;;;;;;59.25;48.50;;;;;13.09;56.76;99409.78;5067894;28;8959;-79
2023/05/01 00:11:03;;;;;;;;;56.75;45.50;;;;;13.07;56.75;99408.97;5063151;28;8971;-83
2023/05/01 00:13:32;;;;;;;;;59.25;47.25;;;;;13.04;56.90;99406.44;5087896;28;9089;-80
2023/05/01 00:16:01;;;;;;;;;53.25;45.00;;;;;13.04;56.71;99408.22;5067870;28;8876;-80
2023/05/01 00:18:31;;;;;;;;;60.00;48.75;;;;;13.00;56.50;99406.59;5076699;28;8860;-79
2023/05/01 00:21:00;;;;;;;;;57.25;47.50;;;;;12.97;56.55;99406.69;5050006;28;8879;-80
2023/05/01 00:23:29;;;;;;;;;60.25;47.75;;;;;12.90;56.98;99395.44;5089416;28;8927;-79
2023/05/01 00:25:58;;;;;;;;;56.00;45.25;;;;;12.79;57.87;99401.06;5070634;28;8842;-80
2023/05/01 00:28:27;;;;;;;;;58.75;48.00;;;;;12.74;57.69;99389.78;5069569;28;8870;-78
2023/05/01 00:30:57;;;;;;;;;54.75;44.75;;;;;12.71;57.81;99382.84;5069987;28;8886;-83
2023/05/01 00:33:25;;;;;;;;;54.75;45.50;;;;;12.70;58.12;99391.66;5051164;28;8881;-83
2023/05/01 00:35:56;;;;;;;;;50.75;42.75;;;;;12.69;58.02;99392.59;5027508;28;9627;-83
2023/05/01 00:38:25;;;;;;;;;55.00;45.50;;;;;12.72;57.79;99397.75;5053963;28;8847;-80
2023/05/01 00:40:54;;;;;;;;;54.50;46.00;;;;;12.72;57.71;99392.47;5068953;28;9694;-81
2023/05/01 00:43:22;;;;;;;;;55.50;46.00;;;;;12.72;57.83;99394.25;5067503;28;9009;-79
2023/05/01 00:45:51;;;;;;;;;52.00;43.25;;;;;12.74;57.83;99393.28;5080930;28;8861;-80
2023/05/01 00:48:20;;;;;;;;;54.50;44.00;;;;;12.70;58.01;99393.44;5047397;28;8857;-79
2023/05/01 00:50:50;;;;;;;;;56.75;47.00;;;;;12.68;57.86;99395.28;5010263;28;8936;-83
2023/05/01 00:53:22;;;;;;;;;52.75;43.75;;;;;12.67;58.02;99397.03;5084215;28;8932;-82
2023/05/01 00:55:51;;;;;;;;;53.25;45.00;;;;;12.65;57.87;99392.72;5067462;28;8854;-83
2023/05/01 00:58:19;;;;;;;;;53.25;44.75;;;;;12.64;58.00;99388.38;5067547;28;8882;-82
2023/05/01 01:00:49;;;;;;;;;54.25;46.00;;;;;12.60;58.23;99394.63;5050717;28;8851;-82
2023/05/01 01:03:18;;;;;;;;;53.75;45.25;;;;;12.52;58.35;99403.69;5065913;28;8886;-81
2023/05/01 01:05:53;;;;;;;;;52.50;44.00;;;;;12.62;58.39;99400.75;5067711;28;8862;-83
2023/05/01 01:08:28;;;;;;;;;55.50;45.50;;;;;12.63;58.00;99397.19;5067400;28;8898;-80
2023/05/01 01:11:11;;;;;;;;;53.00;44.25;;;;;12.52;58.35;99397.53;5053872;28;8845;-80
2023/05/01 01:13:46;;;;;;;;;51.00;42.50;;;;;12.42;58.99;99399.59;5007935;28;9701;-84
2023/05/01 01:16:21;;;;;;;;;51.75;43.50;;;;;12.46;58.46;99398.56;5048507;28;8869;-80
2023/05/01 01:18:56;;;;;;;;;50.50;42.00;;;;;12.40;58.67;99395.28;5064063;28;9001;-79
2023/05/01 01:21:31;;;;;;;;;54.00;45.25;;;;;12.34;58.81;99396.31;5047084;28;8861;-81
2023/05/01 01:24:36;;;;;;;;;55.25;46.00;;;;;12.45;58.13;99399.50;5063478;28;8861;-80
2023/05/01 01:27:45;;;;;;;;;55.25;46.00;;;;;12.45;57.80;99402.13;5060670;28;8907;-82
2023/05/01 01:30:58;;;;;;;;;56.00;47.00;;;;;12.45;57.90;99403.91;5054909;28;8958;-80
2023/05/01 01:33:56;;;;;;;;;53.50;46.00;;;;;12.36;58.28;99394.50;4922801;28;8860;-80
2023/05/01 01:36:38;;;;;;;;;59.50;47.75;;;;;12.31;58.32;99399.91;4928715;29;8876;-80
2023/05/01 01:39:23;;;;;;;;;60.25;48.25;;;;;12.32;58.23;99398.16;4925731;29;8947;-83
2023/05/01 01:41:53;;;;;;;;;54.75;46.25;;;;;12.28;57.97;99391.25;4920641;29;8895;-82
2023/05/01 01:44:40;;;;;;;;;56.25;47.00;;;;;12.28;57.90;99386.84;4924924;29;9749;-80
2023/05/01 01:47:14;;;;;;;;;52.50;44.00;;;;;12.30;57.91;99395.56;4883229;29;8923;-80
2023/05/01 01:49:50;;;;;;;;;58.25;47.00;;;;;12.27;57.74;99390.38;4928368;29;8895;-80
2023/05/01 01:52:22;;;;;;;;;57.50;48.00;;;;;12.19;58.20;99391.53;4912980;29;8995;-80
2023/05/01 01:54:57;;;;;;;;;53.00;44.00;;;;;12.07;58.74;99391.00;4913209;29;8877;-80
2023/05/01 01:57:28;;;;;;;;;56.25;46.25;;;;;12.01;58.62;99399.03;4913338;29;8971;-79
2023/05/01 01:59:58;;;;;;;;;55.00;44.50;;;;;12.00;58.44;99391.22;4913407;29;8877;-80
2023/05/01 02:02:28;;;;;;;;;54.25;45.75;;;;;12.02;58.67;99392.88;4896648;29;8891;-79
2023/05/01 02:04:59;;;;;;;;;56.75;46.50;;;;;12.04;58.43;99393.69;4912145;29;8947;-80
2023/05/01 02:07:30;;;;;;;;;55.75;46.25;;;;;12.03;58.06;99393.75;4870092;29;8875;-79
2023/05/01 02:10:02;;;;;;;;;56.25;44.50;;;;;12.06;58.06;99391.03;4913713;28;8867;-80
2023/05/01 02:12:33;;;;;;;;;52.00;44.00;;;;;12.01;58.04;99393.78;4987967;28;8857;-80
2023/05/01 02:15:03;;;;;;;;;47.00;40.50;;;;;11.99;58.11;99400.88;5072932;28;8894;-80
2023/05/01 02:17:33;;;;;;;;;51.25;43.50;;;;;11.98;57.92;99398.31;5045898;28;8865;-80
2023/05/01 02:20:06;;;;;;;;;52.75;45.25;;;;;11.98;57.98;99401.78;5012664;28;8915;-80
2023/05/01 02:22:37;;;;;;;;;52.75;44.75;;;;;11.97;57.85;99401.81;5036788;28;8863;-81
2023/05/01 02:25:09;;;;;;;;;55.00;45.25;;;;;11.93;57.83;99398.41;5049368;28;8855;-79
2023/05/01 02:27:40;;;;;;;;;54.50;45.00;;;;;11.91;57.30;99400.22;5017388;28;8917;-81
2023/05/01 02:30:11;;;;;;;;;53.75;45.00;;;;;11.89;57.72;99404.69;5048902;28;8955;-80
2023/05/01 02:32:40;;;;;;;;;51.25;43.25;;;;;11.87;57.64;99398.59;5016378;28;8889;-84
2023/05/01 02:35:10;;;;;;;;;53.75;45.75;;;;;11.82;57.84;99408.38;5032174;28;8939;-80
2023/05/01 02:37:40;;;;;;;;;48.25;41.00;;;;;11.75;57.81;99407.69;5027378;28;8854;-80
2023/05/01 02:40:13;;;;;;;;;51.50;43.50;;;;;11.73;57.87;99407.72;5026344;28;8828;-80
2023/05/01 02:42:43;;;;;;;;;54.50;44.75;;;;;11.56;58.04;99420.50;5048510;28;8879;-80
2023/05/01 02:45:19;;;;;;;;;53.50;45.25;;;;;11.17;60.12;99420.63;5032684;28;8886;-82
2023/05/01 02:47:51;;;;;;;;;35.25;32.75;;;;;11.22;59.72;99416.13;5035328;28;8856;-81
2023/05/01 02:50:23;;;;;;;;;52.25;43.25;;;;;11.26;59.42;99420.41;5052259;28;8845;-79
2023/05/01 02:52:52;;;;;;;;;54.25;44.50;;;;;11.11;59.62;99424.28;5064346;28;8864;-80
2023/05/01 02:55:57;;;;;;;;;53.50;43.25;;;;;11.17;59.58;99416.22;5033896;28;8846;-80
2023/05/01 02:58:26;;;;;;;;;54.50;44.50;;;;;10.94;60.53;99419.44;5045949;28;8854;-79
2023/05/01 03:00:55;;;;;;;;;54.50;44.50;;;;;10.41;62.63;99424.16;5029097;28;8876;-79
2023/05/01 03:03:25;;;;;;;;;53.75;43.00;;;;;10.69;61.38;99420.88;5030713;28;8839;-80
2023/05/01 03:05:56;;;;;;;;;52.50;45.25;;;;;10.82;60.93;99417.09;5032603;28;8851;-80
2023/05/01 03:08:24;;;;;;;;;49.25;42.25;;;;;10.82;60.71;99422.34;5057514;28;8848;-81
2023/05/01 03:10:53;;;;;;;;;39.50;35.25;;;;;10.82;60.61;99424.13;5049067;28;9059;-79
2023/05/01 03:13:22;;;;;;;;;49.00;41.50;;;;;10.83;60.69;99416.19;5049333;28;8890;-79
2023/05/01 03:15:51;;;;;;;;;52.25;44.50;;;;;10.45;62.41;99425.81;5032860;28;8870;-80
2023/05/01 03:18:21;;;;;;;;;53.50;45.25;;;;;10.31;63.19;99427.88;5033313;28;8854;-79
2023/05/01 03:20:56;;;;;;;;;51.00;41.75;;;;;9.91;64.89;99432.19;5000268;28;8818;-80
2023/05/01 03:23:26;;;;;;;;;51.75;42.25;;;;;10.11;64.03;99434.41;5030781;28;8843;-80
2023/05/01 03:25:56;;;;;;;;;57.25;46.25;;;;;9.95;64.71;99436.50;5035080;28;8859;-80
2023/05/01 03:28:24;;;;;;;;;50.50;42.00;;;;;9.74;65.91;99442.16;5051773;28;8994;-80
2023/05/01 03:30:54;;;;;;;;;52.75;45.25;;;;;9.74;65.88;99448.28;5062742;28;8945;-80
2023/05/01 03:33:22;;;;;;;;;50.00;43.00;;;;;9.80;65.70;99444.66;5032468;28;8874;-80
2023/05/01 03:36:02;;;;;;;;;55.75;46.75;;;;;10.05;64.74;99441.53;5033858;28;8874;-80
2023/05/01 03:38:32;;;;;;;;;51.25;42.25;;;;;10.19;63.77;99440.38;5064872;28;8850;-80
2023/05/01 03:41:10;;;;;;;;;51.75;44.00;;;;;10.30;63.46;99448.03;5071029;28;8827;-80
2023/05/01 03:43:47;;;;;;;;;50.00;42.25;;;;;10.15;64.34;99443.97;5071534;28;8867;-80
2023/05/01 03:46:32;;;;;;;;;48.75;40.00;;;;;9.88;65.42;99445.41;5048959;28;8909;-81
2023/05/01 03:49:01;;;;;;;;;50.25;43.25;;;;;10.15;64.17;99446.59;5006901;28;8860;-82
2023/05/01 03:51:38;;;;;;;;;52.50;44.00;;;;;10.30;63.47;99441.91;5060428;28;8873;-80
2023/05/01 03:54:06;;;;;;;;;54.33;45.00;;;;;10.27;64.12;99440.19;5060360;28;8857;-78
2023/05/01 03:56:50;;;;;;;;;50.50;42.50;;;;;10.31;63.57;99446.25;5019820;28;9660;-81
2023/05/01 03:59:20;;;;;;;;;50.00;43.00;;;;;10.07;64.57;99440.63;5049033;28;8893;-80
2023/05/01 04:01:49;;;;;;;;;50.50;43.50;;;;;10.36;63.36;99445.25;5065775;28;8861;-79
2023/05/01 04:04:19;;;;;;;;;50.75;43.00;;;;;10.37;63.36;99446.16;5065698;28;8866;-81
2023/05/01 04:06:57;;;;;;;;;47.25;39.25;;;;;10.58;62.69;99443.03;5069004;28;8826;-82
2023/05/01 04:09:25;;;;;;;;;49.75;41.50;;;;;10.72;62.02;99437.44;5059777;28;8834;-79
2023/05/01 04:11:54;;;;;;;;;51.75;43.25;;;;;10.87;61.70;99444.16;5048631;28;8865;-82
2023/05/01 04:14:23;;;;;;;;;78.75;64.50;;;;;11.03;61.49;99449.91;5049026;28;8861;-81
2023/05/01 04:16:52;;;;;;;;;66.75;52.25;;;;;11.15;60.78;99448.75;5048243;28;9623;-80
2023/05/01 04:19:21;;;;;;;;;47.00;39.25;;;;;11.27;60.62;99451.06;5030639;28;8884;-84
2023/05/01 04:21:58;;;;;;;;;49.25;41.75;;;;;11.41;60.08;99450.72;5034774;28;8866;-82
2023/05/01 04:24:27;;;;;;;;;53.75;44.00;;;;;11.30;60.23;99453.63;5056176;28;8957;-83
2023/05/01 04:26:57;;;;;;;;;48.50;38.75;;;;;11.27;60.39;99451.06;5048698;28;8838;-80
2023/05/01 04:29:26;;;;;;;;;45.50;37.75;;;;;11.19;60.33;99455.66;5048630;28;8984;-80
2023/05/01 04:31:55;;;;;;;;;49.00;42.00;;;;;10.42;63.20;99469.69;5031973;28;8946;-82
2023/05/01 04:34:28;;;;;;;;;45.25;38.75;;;;;9.69;65.80;99470.25;5032034;28;8879;-82
2023/05/01 04:36:58;;;;;;;;;40.50;35.25;;;;;9.04;69.44;99476.56;5035099;28;8877;-81
2023/05/01 04:39:27;;;;;;;;;39.50;35.75;;;;;8.94;70.15;99469.75;5001640;28;8870;-81
2023/05/01 04:41:57;;;;;;;;;47.00;40.00;;;;;8.98;70.51;99472.28;5068470;28;8854;-79
2023/05/01 04:44:27;;;;;;;;;46.25;41.00;;;;;9.11;69.74;99472.97;5068422;28;8851;-79
2023/05/01 04:46:56;;;;;;;;;86.75;80.50;;;;;9.64;67.76;99472.97;5068553;28;8847;-80
2023/05/01 04:49:25;;;;;;;;;68.00;55.67;;;;;9.99;66.15;99474.94;5068138;28;10336;-80
2023/05/01 04:51:54;;;;;;;;;86.75;76.75;;;;;10.33;64.94;99469.00;5067966;28;9115;-79
2023/05/01 04:54:26;;;;;;;;;57.75;46.25;;;;;10.57;64.06;99464.09;5057887;28;10313;-81
2023/05/01 04:56:55;;;;;;;;;50.75;43.50;;;;;10.84;62.65;99467.00;5031438;28;8841;-80
2023/05/01 04:59:24;;;;;;;;;55.00;44.50;;;;;11.15;62.04;99472.41;5030990;28;8868;-81
2023/05/01 05:01:55;;;;;;;;;55.75;43.75;;;;;11.38;60.76;99472.69;5062400;28;8912;-79
2023/05/01 05:04:24;;;;;;;;;40.25;32.75;;;;;11.69;59.88;99471.91;5017250;28;8931;-80
2023/05/01 05:06:53;;;;;;;;;53.00;43.75;;;;;11.97;59.17;99478.22;5066581;28;8963;-80
2023/05/01 05:09:31;;;;;;;;;61.75;50.25;;;;;12.09;58.23;99476.13;5058350;28;8865;-79
2023/05/01 05:12:00;;;;;;;;;77.25;65.50;;;;;12.28;57.83;99478.22;5053176;28;8859;-80
2023/05/01 05:14:30;;;;;;;;;50.50;41.75;;;;;12.20;57.27;99473.19;5050644;28;10138;-81
2023/05/01 05:17:01;;;;;;;;;51.25;43.00;;;;;12.31;57.21;99481.59;5067306;28;8878;-80
2023/05/01 05:19:29;;;;;;;;;53.00;45.50;;;;;12.43;56.77;99474.25;5050518;28;9597;-82
2023/05/01 05:21:58;;;;;;;;;51.00;42.25;;;;;12.59;56.24;99472.88;5066288;28;9640;-82
2023/05/01 05:24:27;;;;;;;;;49.25;41.50;;;;;12.82;55.98;99471.31;5053168;28;8853;-80
2023/05/01 05:26:58;;;;;;;;;55.00;45.50;;;;;12.97;55.26;99472.66;5046889;28;9567;-81
2023/05/01 05:29:27;;;;;;;;;52.25;43.25;;;;;13.11;54.89;99479.22;5030798;28;8853;-81
2023/05/01 05:31:56;;;;;;;;;44.50;37.75;;;;;12.92;54.15;99478.09;5047443;28;8860;-79
2023/05/01 05:34:25;;;;;;;;;39.75;35.50;;;;;13.01;54.13;99480.41;5031863;28;9644;-78
2023/05/01 05:36:55;;;;;;;;;42.25;35.50;;;;;12.80;54.27;99479.28;5061570;28;8845;-79
2023/05/01 05:39:25;;;;;;;;;39.75;34.75;;;;;12.36;55.36;99478.84;5042549;28;9112;-80
2023/05/01 05:41:54;;;;;;;;;41.75;37.00;;;;;12.44;55.66;99482.13;5070714;28;8919;-81
2023/05/01 05:44:25;;;;;;;;;37.50;34.25;;;;;12.61;55.29;99488.66;5050704;28;8847;-79
2023/05/01 05:46:55;;;;;;;;;64.75;50.75;;;;;12.89;54.53;99479.03;5050292;28;8854;-79
2023/05/01 05:49:30;;;;;;;;;25.50;24.25;;;;;13.12;54.14;99480.06;5050971;28;8854;-81
2023/05/01 05:51:59;;;;;;;;;36.75;34.00;;;;;13.40;53.31;99480.00;5067125;28;8916;-79
2023/05/01 05:54:28;;;;;;;;;40.25;34.50;;;;;13.48;52.95;99483.25;5052981;28;8871;-82
2023/05/01 05:56:57;;;;;;;;;49.25;41.75;;;;;13.22;53.90;99485.91;5016853;28;8842;-81
2023/05/01 05:59:27;;;;;;;;;51.50;42.25;;;;;13.15;54.35;99487.88;5067633;28;8955;-79
2023/05/01 06:01:56;;;;;;;;;47.25;39.75;;;;;12.75;55.78;99491.75;5072556;28;8881;-81
2023/05/01 06:04:25;;;;;;;;;51.00;41.00;;;;;12.95;56.02;99496.44;5055081;28;8887;-81
2023/05/01 06:06:54;;;;;;;;;52.00;44.00;;;;;12.53;56.89;99489.75;5049229;28;8877;-82
2023/05/01 06:09:23;;;;;;;;;50.50;42.25;;;;;12.81;56.84;99490.72;5057331;28;8859;-80
2023/05/01 06:11:53;;;;;;;;;52.00;43.00;;;;;13.07;56.24;99492.53;5015999;28;9636;-83
2023/05/01 06:14:24;;;;;;;;;51.50;42.25;;;;;13.29;55.43;99496.19;5054811;28;8887;-80
2023/05/01 06:16:55;;;;;;;;;84.75;83.25;;;;;13.44;55.28;99496.63;5036738;28;8857;-80
2023/05/01 06:19:24;;;;;;;;;62.25;50.25;;;;;13.71;54.60;99494.78;5041365;28;10886;-81
2023/05/01 06:22:00;;;;;;;;;53.25;42.50;;;;;13.65;54.70;99495.88;5051040;28;8858;-80
2023/05/01 06:24:38;;;;;;;;;53.50;43.75;;;;;13.16;55.87;99497.50;5047284;28;8845;-79
2023/05/01 06:27:09;;;;;;;;;51.25;43.00;;;;;12.83;57.36;99497.66;5047783;28;8961;-80
2023/05/01 06:29:38;;;;;;;;;48.00;41.00;;;;;12.59;58.22;99503.69;5059937;28;8935;-80
2023/05/01 06:32:08;;;;;;;;;51.25;41.00;;;;;12.02;59.96;99514.06;5044454;28;8900;-80
2023/05/01 06:34:37;;;;;;;;;40.50;36.25;;;;;11.89;60.89;99508.25;5044257;28;8862;-80
2023/05/01 06:37:06;;;;;;;;;49.50;42.00;;;;;12.30;59.68;99508.91;5025734;28;8849;-80
2023/05/01 06:39:35;;;;;;;;;48.00;40.50;;;;;12.81;58.40;99504.75;5032946;28;8845;-80
2023/05/01 06:42:05;;;;;;;;;51.00;42.25;;;;;13.19;57.72;99504.50;5001003;28;8865;-80
2023/05/01 06:44:40;;;;;;;;;50.75;41.25;;;;;13.60;56.28;99507.50;5050595;28;8857;-79
2023/05/01 06:47:10;;;;;;;;;50.75;43.00;;;;;14.05;55.69;99507.75;5035147;28;8910;-74
2023/05/01 06:49:42;;;;;;;;;42.75;37.00;;;;;14.50;53.68;99506.06;5050488;28;8865;-72
2023/05/01 06:52:11;;;;;;;;;64.25;51.50;;;;;14.50;51.83;99500.78;5054317;28;8862;-72
2023/05/01 06:54:40;;;;;;;;;47.50;39.00;;;;;14.37;52.16;99508.31;5041424;28;8869;-72
2023/05/01 06:57:09;;;;;;;;;44.00;37.25;;;;;14.71;51.44;99512.31;5065161;28;8850;-73
2023/05/01 06:59:39;;;;;;;;;46.50;37.25;;;;;14.52;51.64;99509.53;5069660;28;8854;-77
2023/05/01 07:02:08;;;;;;;;;34.00;32.60;;;;;14.78;50.64;99515.66;5058693;28;8838;-77
2023/05/01 07:04:38;;;;;;;;;32.25;29.50;;;;;14.17;51.38;99519.66;5033293;28;8894;-78
2023/05/01 07:07:07;;;;;;;;;22.00;21.20;;;;;14.13;51.05;99522.44;5004829;28;8853;-72
2023/05/01 07:09:36;;;;;;;;;33.25;32.00;;;;;14.10;51.82;99531.34;5071163;28;8876;-73
2023/05/01 07:12:05;;;;;;;;;33.00;32.00;;;;;14.26;51.60;99527.25;5068951;28;8835;-72
2023/05/01 07:14:34;;;;;;;;;34.75;31.75;;;;;14.40;51.33;99516.16;5049991;28;9752;-69
2023/05/01 07:17:04;;;;;;;;;30.25;30.00;;;;;14.98;50.21;99533.38;5059578;28;8891;-69
2023/05/01 07:19:33;;;;;;;;;33.25;31.00;;;;;14.95;49.14;99534.38;5049870;28;8849;-69
2023/05/01 07:22:04;;;;;;;;;35.75;33.00;;;;;14.97;49.78;99524.56;5059251;28;8850;-81
2023/05/01 07:24:32;;;;;;;;;35.75;32.50;;;;;15.28;49.09;99535.72;5074938;28;8931;-79
2023/05/01 07:27:02;;;;;;;;;43.50;37.00;;;;;15.07;49.84;99527.72;5071729;28;8847;-80
2023/05/01 07:29:31;;;;;;;;;38.25;34.75;;;;;15.10;51.02;99532.06;5015814;28;8842;-82
2023/05/01 07:32:00;;;;;;;;;45.25;38.75;;;;;15.57;50.09;99538.03;5057956;28;8899;-79
2023/05/01 07:34:30;;;;;;;;;46.00;39.00;;;;;15.97;48.90;99531.06;5069958;28;8854;-80
2023/05/01 07:36:59;;;;;;;;;44.25;37.75;;;;;16.34;48.18;99529.44;5069657;28;8854;-79
2023/05/01 07:39:29;;;;;;;;;48.25;40.75;;;;;16.38;47.34;99533.69;5051876;28;8965;-81
2023/05/01 07:41:58;;;;;;;;;45.50;38.50;;;;;15.70;48.90;99533.13;5019649;28;9564;-81
2023/05/01 07:44:26;;;;;;;;;49.00;39.25;;;;;14.94;51.55;99537.91;5053900;28;8858;-81
2023/05/01 07:46:55;;;;;;;;;46.75;39.50;;;;;14.66;52.77;99538.97;5051065;28;8853;-80
2023/05/01 07:49:24;;;;;;;;;40.25;33.50;;;;;14.58;52.89;99542.81;5051142;28;8900;-81
2023/05/01 07:51:54;;;;;;;;;42.25;36.00;;;;;14.50;53.93;99537.81;5034175;28;8887;-80
2023/05/01 07:54:23;;;;;;;;;47.00;38.75;;;;;14.51;53.62;99539.56;5070793;28;8858;-82
2023/05/01 07:56:53;;;;;;;;;46.50;36.25;;;;;14.55;53.72;99537.66;5069529;28;8995;-79
2023/05/01 07:59:22;;;;;;;;;48.50;40.00;;;;;14.40;54.14;99542.59;5069551;28;8866;-80
2023/05/01 08:01:51;;;;;;;;;43.25;36.75;;;;;14.91;52.24;99542.50;5069219;28;8843;-79
2023/05/01 08:04:21;;;;;;;;;39.50;34.00;;;;;14.76;52.90;99534.22;5070589;28;8858;-79
2023/05/01 08:06:51;;;;;;;;;46.25;39.25;;;;;14.21;54.33;99542.41;5069766;28;8830;-80
2023/05/01 08:09:20;;;;;;;;;45.25;36.50;;;;;14.39;53.81;99546.13;5053423;28;8861;-80
2023/05/01 08:11:49;;;;;;;;;46.50;38.00;;;;;14.84;52.61;99536.56;5062426;28;8847;-81
2023/05/01 08:14:19;;;;;;;;;37.25;32.50;;;;;15.19;51.52;99532.53;5056794;28;8849;-79
2023/05/01 08:16:53;;;;;;;;;38.25;33.00;;;;;15.45;51.03;99541.19;5054670;28;8835;-79
2023/05/01 08:19:22;;;;;;;;;36.50;33.25;;;;;15.56;50.65;99546.91;5055371;28;8857;-81
2023/05/01 08:21:51;;;;;;;;;47.75;40.00;;;;;15.36;51.06;99544.22;5059227;28;8850;-81
2023/05/01 08:24:20;;;;;;;;;45.00;38.00;;;;;15.80;50.33;99539.75;5023606;28;8857;-80
2023/05/01 08:26:48;;;;;;;;;40.50;35.00;;;;;15.50;50.70;99541.00;5056505;28;8858;-79
2023/05/01 08:29:18;;;;;;;;;35.75;32.00;;;;;16.02;49.08;99542.34;5051551;28;8881;-80
2023/05/01 08:31:47;;;;;;;;;34.00;31.00;;;;;16.23;48.58;99542.34;5031577;28;8905;-80
2023/05/01 08:34:16;;;;;;;;;42.25;35.75;;;;;16.63;48.11;99547.66;5050063;28;8841;-73
2023/05/01 08:36:45;;;;;;;;;40.25;35.25;;;;;16.70;47.69;99549.97;5064761;28;9586;-73
2023/05/01 08:39:14;;;;;;;;;39.00;34.25;;;;;17.09;47.32;99543.69;5069630;28;8862;-72
2023/05/01 08:41:47;;;;;;;;;40.75;35.25;;;;;17.37;46.40;99545.88;5069458;28;8858;-73
2023/05/01 08:44:16;;;;;;;;;36.50;33.25;;;;;17.47;46.43;99535.66;5068152;28;9575;-72
2023/05/01 08:46:53;;;;;;;;;35.50;33.00;;;;;17.91;45.60;99540.53;5054714;28;8841;-76
2023/05/01 08:49:24;;;;;;;;;42.25;37.75;;;;;18.01;45.68;99537.41;5046898;28;8995;-75
2023/05/01 08:51:55;;;;;;;;;42.25;36.00;;;;;17.13;46.64;99541.75;5050894;28;8868;-76
2023/05/01 08:54:27;;;;;;;;;36.00;34.00;;;;;17.71;45.69;99536.22;5014338;28;8856;-75
2023/05/01 08:57:02;;;;;;;;;34.00;32.75;;;;;17.86;45.45;99539.06;5060012;28;8853;-77
2023/05/01 08:59:33;;;;;;;;;33.00;32.25;;;;;17.69;45.00;99539.91;4998227;28;8853;-75
2023/05/01 09:02:06;;;;;;;;;33.50;32.00;;;;;17.77;45.04;99532.41;5069592;28;8900;-76
2023/05/01 09:04:36;;;;;;;;;36.25;33.00;;;;;18.05;45.46;99528.34;5067923;28;8870;-78
2023/05/01 09:07:06;;;;;;;;;38.00;34.25;;;;;18.39;44.06;99531.91;5069042;28;8854;-75
2023/05/01 09:09:34;;;;;;;;;29.75;29.00;;;;;18.54;43.47;99536.38;5054070;28;9749;-77
2023/05/01 09:12:12;;;;;;;;;39.00;33.25;;;;;18.43;43.10;99526.31;5035452;28;8878;-75
2023/05/01 09:14:41;;;;;;;;;43.75;38.75;;;;;17.50;45.56;99527.56;5067732;28;8866;-76
2023/05/01 09:17:12;;;;;;;;;44.75;38.00;;;;;17.98;44.57;99528.63;5069053;28;8870;-75
2023/05/01 09:19:41;;;;;;;;;35.00;32.00;;;;;18.26;43.81;99524.56;5069341;28;8859;-75
2023/05/01 09:22:10;;;;;;;;;42.75;35.25;;;;;18.44;42.84;99529.81;5066545;28;8866;-76
2023/05/01 09:24:38;;;;;;;;;40.25;32.75;;;;;16.92;46.63;99525.91;5049244;28;8869;-75
2023/05/01 09:27:08;;;;;;;;;34.50;31.00;;;;;16.76;45.77;99532.88;5060511;28;8923;-76
2023/05/01 09:29:40;;;;;;;;;38.25;32.50;;;;;17.21;46.02;99528.94;5068766;28;9094;-75
2023/05/01 09:32:19;;;;;;;;;35.75;33.75;;;;;17.31;45.21;99524.94;5049489;28;8862;-77
2023/05/01 09:34:49;;;;;;;;;34.00;31.50;;;;;17.74;44.12;99533.44;5068379;28;9620;-76
2023/05/01 09:37:27;;;;;;;;;31.25;31.00;;;;;18.06;43.76;99530.06;5067082;28;8835;-74
2023/05/01 09:40:04;;;;;;;;;75.75;62.25;;;;;18.43;43.05;99522.81;5049072;28;8875;-77
2023/05/01 09:42:35;;;;;;;;;36.75;33.50;;;;;18.65;41.78;99523.34;5062469;28;10564;-77
2023/05/01 09:45:06;;;;;;;;;37.75;32.50;;;;;18.54;41.23;99525.75;5068692;28;8896;-75
2023/05/01 09:47:36;;;;;;;;;31.75;30.75;;;;;18.66;40.94;99519.72;5068423;28;8889;-76
2023/05/01 09:50:06;;;;;;;;;31.50;30.75;;;;;17.88;42.52;99515.91;5067107;28;8870;-76
2023/05/01 09:52:35;;;;;;;;;34.50;31.75;;;;;18.35;41.86;99523.22;5029668;28;8915;-75
2023/05/01 09:55:14;;;;;;;;;25.80;25.20;;;;;18.77;41.26;99513.81;5056152;28;8881;-75
2023/05/01 09:57:45;;;;;;;;;26.40;25.00;;;;;18.94;40.71;99513.75;5068158;28;9638;-76
2023/05/01 10:00:15;;;;;;;;;25.40;25.40;;;;;19.26;40.76;99513.72;5068416;28;9585;-76
2023/05/01 10:02:47;;;;;;;;;42.00;36.50;;;;;19.40;40.10;99512.91;5068317;28;8862;-76
2023/05/01 10:05:16;;;;;;;;;31.75;30.00;;;;;19.67;39.79;99521.16;5068394;28;8855;-75
2023/05/01 10:07:57;;;;;;;;;26.40;24.40;;;;;19.92;38.76;99509.00;5066407;28;8842;-76
2023/05/01 10:10:25;;;;;;;;;33.75;30.25;;;;;19.70;38.26;99512.09;5068230;28;8866;-76
2023/05/01 10:12:55;;;;;;;;;27.25;24.00;;;;;19.66;38.60;99506.09;5067778;28;9545;-77
2023/05/01 10:15:35;;;;;;;;;34.25;32.25;;;;;19.84;38.46;99506.81;5068228;28;8959;-76
2023/05/01 10:18:07;;;;;;;;;60.67;48.67;;;;;20.00;38.36;99504.06;5067939;28;8861;-77
2023/05/01 10:20:36;;;;;;;;;30.00;28.50;;;;;19.98;37.80;99508.63;5067995;28;8957;-75
2023/05/01 10:23:05;;;;;;;;;26.40;24.60;;;;;19.97;37.94;99509.59;5059603;28;9653;-78
2023/05/01 10:25:37;;;;;;;;;28.50;27.00;;;;;20.18;38.14;99504.75;5046293;28;8906;-75
2023/05/01 10:28:06;;;;;;;;;32.00;30.75;;;;;20.39;37.91;99493.72;5064362;28;8831;-76
2023/05/01 10:30:36;;;;;;;;;32.25;29.75;;;;;20.27;37.36;99501.56;5049298;28;8858;-76
2023/05/01 10:33:07;;;;;;;;;35.75;32.25;;;;;20.48;37.67;99488.66;5067859;28;8831;-76
2023/05/01 10:35:40;;;;;;;;;33.25;30.25;;;;;20.58;37.79;99493.44;5032942;28;9001;-77
2023/05/01 10:38:19;;;;;;;;;104.50;96.75;;;;;20.65;37.00;99484.03;5059331;28;8853;-77
2023/05/01 10:40:48;;;;;;;;;45.25;37.75;;;;;20.68;37.00;99491.88;5055689;28;10237;-76
2023/05/01 10:43:27;;;;;;;;;31.50;30.50;;;;;20.63;36.20;99491.31;5033130;28;8901;-77
2023/05/01 10:46:28;;;;;;;;;34.00;30.75;;;;;20.79;36.01;99486.69;5032449;28;8905;-76
2023/05/01 10:48:59;;;;;;;;;29.25;28.00;;;;;20.70;36.74;99476.59;5068328;28;8859;-76
2023/05/01 10:51:28;;;;;;;;;35.50;30.50;;;;;20.89;36.38;99476.25;5068207;28;8859;-76
2023/05/01 10:54:22;;;;;;;;;29.25;28.50;;;;;21.18;36.11;99477.06;5071002;28;8891;-76
2023/05/01 10:56:51;;;;;;;;;29.50;29.50;;;;;21.18;35.99;99476.19;5055787;28;8855;-76
2023/05/01 10:59:20;;;;;;;;;26.20;24.40;;;;;21.28;35.46;99469.28;5032677;28;8873;-77
2023/05/01 11:01:50;;;;;;;;;25.60;25.00;;;;;21.33;34.86;99475.16;5067382;28;8869;-75
2023/05/01 11:04:52;;;;;;;;;24.20;23.00;;;;;21.58;34.83;99473.53;5067653;28;8842;-76
2023/05/01 11:07:25;;;;;;;;;61.25;49.00;;;;;21.58;34.16;99471.72;5048987;28;8853;-75
2023/05/01 11:09:57;;;;;;;;;52.75;44.25;;;;;21.71;33.73;99470.88;5064580;28;8845;-75
2023/05/01 11:12:49;;;;;;;;;22.40;22.40;;;;;21.99;33.99;99468.03;5046675;28;9595;-77
2023/05/01 11:15:29;;;;;;;;;22.40;20.20;;;;;22.08;33.65;99471.88;5047121;28;8916;-76
2023/05/01 11:17:58;;;;;;;;;25.20;24.40;;;;;22.06;33.86;99463.09;5059284;28;8838;-75
2023/05/01 11:20:49;;;;;;;;;25.60;25.40;;;;;22.06;33.65;99459.56;5067851;28;8877;-80
2023/05/01 11:23:22;;;;;;;;;23.20;22.80;;;;;22.07;33.68;99461.25;5057396;28;8841;-82
2023/05/01 11:26:03;;;;;;;;;24.00;22.80;;;;;22.15;33.50;99456.25;5016182;28;8865;-80
2023/05/01 11:28:33;;;;;;;;;24.40;22.60;;;;;22.23;33.30;99454.72;5067187;28;8866;-75
2023/05/01 11:31:02;;;;;;;;;17.60;17.00;;;;;22.27;31.84;99450.03;5049505;28;8861;-77
2023/05/01 11:33:31;;;;;;;;;22.20;21.20;;;;;22.32;32.17;99444.38;5032257;28;8869;-78
2023/05/01 11:36:03;;;;;;;;;17.20;16.40;;;;;22.42;31.38;99448.09;5059475;28;8880;-79
2023/05/01 11:38:32;;;;;;;;;14.80;14.00;;;;;22.22;31.91;99447.66;5068230;28;10121;-76
2023/05/01 11:41:03;;;;;;;;;17.00;16.60;;;;;22.22;32.35;99444.09;5051458;28;8864;-74
2023/05/01 11:43:32;;;;;;;;;15.20;13.80;;;;;22.12;32.26;99440.38;5050727;28;8867;-74
2023/05/01 11:46:04;;;;;;;;;16.20;15.20;;;;;22.11;31.82;99434.19;5050992;28;8864;-73